Time;durP1;ratioP1;P1;durP2;ratioP2;P2;SDS_P1;SDS_P2;PMS_P1;PMS_P2;Temp;Humidity;BMP_temperature;BMP_pressure;BME280_temperature;BME280_humidity;BME280_pressure;Samples;Min_cycle;Max_cycle;Signal;HPM_P1;HPM_P2
2023/03/27 00:00:40;;;;;;;7.00;4.70;;;9.90;68.70;;;;;;4978328;28;20229;-79
2023/03/27 00:03:07;;;;;;;9.77;4.65;;;9.90;68.90;;;;;;4974110;28;20545;-78
2023/03/27 00:05:34;;;;;;;6.93;4.53;;;9.90;68.60;;;;;;4975846;28;20577;-79
2023/03/27 00:08:00;;;;;;;6.83;4.27;;;9.80;69.20;;;;;;4975015;28;20186;-78
2023/03/27 00:10:27;;;;;;;4.20;3.53;;;9.80;69.20;;;;;;4978898;28;20235;-78
2023/03/27 00:12:53;;;;;;;5.13;3.87;;;9.70;69.60;;;;;;4979026;28;20188;-78
2023/03/27 00:15:20;;;;;;;4.53;3.53;;;9.70;69.50;;;;;;4979765;28;20228;-78
2023/03/27 00:17:48;;;;;;;4.43;3.53;;;9.70;68.80;;;;;;4977375;28;20186;-79
2023/03/27 00:20:21;;;;;;;4.17;3.83;;;9.60;68.80;;;;;;4982293;28;20186;-78
2023/03/27 00:22:57;;;;;;;4.90;3.50;;;9.60;69.40;;;;;;4978998;28;20178;-78
2023/03/27 00:25:25;;;;;;;3.80;3.20;;;9.50;69.60;;;;;;4975887;28;20702;-78
2023/03/27 00:27:53;;;;;;;3.37;3.10;;;9.50;69.70;;;;;;4977881;28;20182;-78
2023/03/27 00:30:19;;;;;;;4.20;2.80;;;9.50;69.80;;;;;;4978483;28;20232;-78
2023/03/27 00:32:46;;;;;;;3.83;3.20;;;9.40;69.80;;;;;;4980063;28;20645;-81
2023/03/27 00:35:13;;;;;;;4.83;2.77;;;9.50;69.70;;;;;;4979328;28;20236;-78
2023/03/27 00:37:39;;;;;;;4.07;2.67;;;9.50;69.30;;;;;;4975364;28;20235;-79
2023/03/27 00:40:08;;;;;;;3.23;2.93;;;9.50;69.80;;;;;;4979469;28;20216;-79
2023/03/27 00:42:34;;;;;;;5.63;2.60;;;9.50;69.50;;;;;;4979285;28;20189;-78
2023/03/27 00:45:01;;;;;;;3.07;2.67;;;9.50;69.80;;;;;;4983776;28;20355;-78
2023/03/27 00:47:38;;;;;;;3.33;3.03;;;9.50;69.60;;;;;;4976015;28;20178;-78
2023/03/27 00:50:18;;;;;;;3.38;3.10;;;9.50;69.20;;;;;;4984635;28;20499;-78
2023/03/27 00:52:46;;;;;;;5.30;3.20;;;9.50;68.70;;;;;;4980848;28;20208;-78
2023/03/27 00:55:16;;;;;;;4.07;2.97;;;9.50;68.90;;;;;;4980149;28;20221;-78
2023/03/27 00:57:44;;;;;;;6.63;3.30;;;9.50;69.20;;;;;;4977209;28;20228;-79
2023/03/27 01:00:13;;;;;;;6.77;3.33;;;9.40;69.70;;;;;;4980628;28;20182;-78
2023/03/27 01:02:45;;;;;;;5.67;2.83;;;9.40;69.40;;;;;;4983013;28;20181;-78
2023/03/27 01:05:11;;;;;;;2.73;2.53;;;9.40;69.50;;;;;;4980056;28;20190;-78
2023/03/27 01:07:39;;;;;;;3.53;3.10;;;9.40;69.00;;;;;;4983251;28;20678;-78
2023/03/27 01:10:06;;;;;;;4.23;2.70;;;9.40;69.40;;;;;;4980383;28;20274;-79
2023/03/27 01:13:09;;;;;;;3.83;3.37;;;9.40;69.70;;;;;;4978286;28;20313;-79
2023/03/27 01:15:37;;;;;;;3.47;2.90;;;9.40;68.70;;;;;;4978723;28;20224;-77
2023/03/27 01:18:25;;;;;;;5.27;3.33;;;9.40;68.70;;;;;;4980795;28;20186;-79
2023/03/27 01:21:05;;;;;;;3.20;2.87;;;9.40;68.60;;;;;;4980547;28;20191;-79
2023/03/27 01:23:36;;;;;;;4.03;2.83;;;9.40;68.90;;;;;;4980203;28;21636;-78
2023/03/27 01:26:23;;;;;;;9.50;3.73;;;9.40;69.20;;;;;;4981547;28;20638;-79
2023/03/27 01:29:30;;;;;;;3.40;3.07;;;9.40;69.20;;;;;;4978035;28;20692;-80
2023/03/27 01:32:34;;;;;;;2.90;2.70;;;9.40;69.20;;;;;;4978285;28;21050;-81
2023/03/27 01:35:02;;;;;;;3.23;2.93;;;9.40;69.20;;;;;;4980091;28;20214;-78
2023/03/27 01:37:51;;;;;;;5.77;3.67;;;9.40;69.30;;;;;;4978870;28;20178;-78
2023/03/27 01:40:40;;;;;;;3.97;3.57;;;9.40;69.30;;;;;;4983137;28;20570;-78
2023/03/27 01:43:39;;;;;;;2.90;2.67;;;9.40;69.60;;;;;;4977393;28;20212;-79
2023/03/27 01:46:05;;;;;;;6.23;3.30;;;9.40;69.80;;;;;;4950729;28;20670;-79
2023/03/27 01:48:46;;;;;;;3.67;3.37;;;9.40;69.90;;;;;;4952260;28;20227;-79
2023/03/27 01:51:34;;;;;;;5.13;4.13;;;9.40;69.60;;;;;;4954474;28;20202;-78
2023/03/27 01:54:23;;;;;;;5.47;3.00;;;9.30;69.50;;;;;;4950927;28;20206;-78
2023/03/27 01:56:54;;;;;;;5.90;2.80;;;9.30;69.60;;;;;;4944275;28;20203;-78
2023/03/27 01:59:25;;;;;;;4.20;3.17;;;9.30;69.80;;;;;;4931302;28;20186;-78
2023/03/27 02:02:08;;;;;;;6.23;3.57;;;9.30;70.00;;;;;;4940569;28;20270;-79
2023/03/27 02:04:46;;;;;;;4.00;3.37;;;9.20;70.00;;;;;;4937579;28;20219;-79
2023/03/27 02:07:18;;;;;;;3.50;3.20;;;9.10;69.70;;;;;;4946141;28;20182;-79
2023/03/27 02:09:49;;;;;;;4.97;3.20;;;9.10;70.10;;;;;;4954835;28;20191;-79
2023/03/27 02:12:20;;;;;;;5.87;3.73;;;9.10;69.70;;;;;;4937254;28;20651;-78
2023/03/27 02:15:11;;;;;;;6.53;2.67;;;9.00;70.40;;;;;;4957388;28;20225;-79
2023/03/27 02:17:43;;;;;;;4.70;3.20;;;9.00;70.70;;;;;;4950874;28;20191;-79
2023/03/27 02:20:15;;;;;;;3.20;2.97;;;8.90;71.40;;;;;;4951893;28;20210;-78
2023/03/27 02:22:47;;;;;;;2.97;2.67;;;8.80;71.40;;;;;;4969020;28;20224;-78
2023/03/27 02:25:23;;;;;;;5.27;2.37;;;8.80;71.50;;;;;;4980305;28;20209;-79
2023/03/27 02:28:01;;;;;;;3.00;2.80;;;8.80;71.40;;;;;;4978009;28;20584;-79
2023/03/27 02:30:39;;;;;;;3.57;2.40;;;8.70;71.60;;;;;;4982122;28;20552;-79
2023/03/27 02:33:05;;;;;;;2.30;2.10;;;8.70;71.60;;;;;;4976523;28;20678;-79
2023/03/27 02:35:49;;;;;;;2.40;2.27;;;8.60;71.80;;;;;;4975013;28;20280;-79
2023/03/27 02:38:22;;;;;;;3.30;3.10;;;8.60;71.60;;;;;;4978951;28;20213;-79
2023/03/27 02:41:12;;;;;;;3.47;2.57;;;8.50;72.00;;;;;;4978518;28;20210;-78
2023/03/27 02:43:46;;;;;;;3.07;2.57;;;8.50;72.20;;;;;;4981362;28;20186;-79
2023/03/27 02:46:39;;;;;;;2.73;2.53;;;8.50;72.10;;;;;;4982168;28;20589;-77
2023/03/27 02:49:25;;;;;;;2.70;2.50;;;8.40;72.20;;;;;;4981241;28;20786;-77
2023/03/27 02:52:06;;;;;;;4.43;2.57;;;8.30;72.40;;;;;;4975591;28;20174;-79
2023/03/27 02:54:38;;;;;;;2.70;2.13;;;8.20;73.10;;;;;;4975788;28;20212;-77
2023/03/27 02:57:10;;;;;;;2.73;2.47;;;8.20;73.00;;;;;;4983547;28;20182;-78
2023/03/27 02:59:43;;;;;;;2.10;1.93;;;8.20;73.20;;;;;;4977657;28;20181;-78
2023/03/27 03:02:15;;;;;;;2.70;2.50;;;8.10;73.40;;;;;;4979744;28;20688;-77
2023/03/27 03:04:55;;;;;;;5.13;2.73;;;8.10;73.40;;;;;;4982676;28;20182;-79
2023/03/27 03:07:23;;;;;;;6.43;3.07;;;8.10;73.70;;;;;;4976756;28;20682;-79
2023/03/27 03:09:49;;;;;;;2.70;2.47;;;8.10;73.70;;;;;;4994896;28;20727;-79
2023/03/27 03:12:15;;;;;;;2.53;2.10;;;8.10;74.20;;;;;;4979318;28;20212;-79
2023/03/27 03:14:45;;;;;;;3.97;2.80;;;8.10;74.30;;;;;;4981686;28;20249;-79
2023/03/27 03:17:12;;;;;;;2.70;2.50;;;8.00;74.10;;;;;;4977607;28;20875;-79
2023/03/27 03:19:38;;;;;;;5.60;2.90;;;8.00;73.90;;;;;;4981056;28;20181;-79
2023/03/27 03:22:05;;;;;;;3.63;2.67;;;8.00;73.60;;;;;;4978343;28;20201;-78
2023/03/27 03:24:31;;;;;;;3.70;2.87;;;8.00;74.30;;;;;;4981978;28;20186;-79
2023/03/27 03:26:58;;;;;;;3.63;2.77;;;8.00;74.50;;;;;;4980783;28;20384;-79
2023/03/27 03:29:28;;;;;;;6.63;2.70;;;8.00;74.70;;;;;;4979194;28;20561;-79
2023/03/27 03:31:57;;;;;;;5.83;2.37;;;7.90;75.30;;;;;;4978164;28;20178;-79
2023/03/27 03:34:23;;;;;;;3.40;2.73;;;7.80;75.40;;;;;;4981861;28;20195;-79
2023/03/27 03:36:49;;;;;;;3.63;3.10;;;7.90;73.50;;;;;;4979557;28;20682;-79
2023/03/27 03:39:16;;;;;;;3.53;2.67;;;7.90;74.20;;;;;;4980292;28;20183;-79
2023/03/27 03:41:42;;;;;;;2.30;2.00;;;7.90;73.60;;;;;;4979478;28;20285;-79
2023/03/27 03:44:09;;;;;;;9.43;2.07;;;8.00;73.30;;;;;;4975800;28;20178;-79
2023/03/27 03:46:35;;;;;;;3.83;2.73;;;7.90;74.30;;;;;;4975096;28;20190;-80
2023/03/27 03:49:03;;;;;;;3.13;2.53;;;8.00;72.60;;;;;;4973241;28;20179;-79
2023/03/27 03:51:30;;;;;;;3.27;2.60;;;8.00;73.80;;;;;;4984000;28;20189;-79
2023/03/27 03:53:56;;;;;;;2.20;2.03;;;8.00;73.90;;;;;;4976890;28;20196;-79
2023/03/27 03:56:22;;;;;;;3.90;2.47;;;8.00;74.20;;;;;;4976863;28;20600;-79
2023/03/27 03:58:48;;;;;;;2.37;2.20;;;8.00;74.20;;;;;;4973867;28;20193;-80
2023/03/27 04:01:13;;;;;;;2.80;2.40;;;8.00;74.20;;;;;;4975372;28;20683;-79
2023/03/27 04:03:40;;;;;;;2.50;2.30;;;8.00;74.10;;;;;;4974721;28;20190;-79
2023/03/27 04:06:06;;;;;;;4.80;2.70;;;8.10;73.80;;;;;;4979390;28;20243;-77
2023/03/27 04:08:33;;;;;;;1.73;1.63;;;8.00;74.40;;;;;;4976372;28;20185;-79
2023/03/27 04:10:59;;;;;;;2.57;2.37;;;8.00;74.70;;;;;;4978711;28;20189;-76
2023/03/27 04:13:25;;;;;;;4.27;2.80;;;8.00;73.90;;;;;;4978230;28;20185;-77
2023/03/27 04:15:51;;;;;;;2.80;2.17;;;8.10;73.20;;;;;;4981201;28;20213;-76
2023/03/27 04:18:20;;;;;;;4.57;2.17;;;8.10;73.90;;;;;;4979536;28;20252;-78
2023/03/27 04:20:49;;;;;;;2.23;2.10;;;8.10;73.40;;;;;;4980722;28;20189;-78
2023/03/27 04:23:19;;;;;;;9.43;2.00;;;8.10;74.10;;;;;;4980808;28;20186;-78
2023/03/27 04:25:45;;;;;;;2.57;2.37;;;8.10;74.30;;;;;;4979714;28;20189;-78
2023/03/27 04:28:15;;;;;;;3.67;2.27;;;8.10;74.10;;;;;;4985665;28;20186;-78
2023/03/27 04:30:42;;;;;;;4.33;3.13;;;8.10;74.70;;;;;;4982835;28;20547;-76
2023/03/27 04:33:17;;;;;;;4.23;2.03;;;8.10;74.00;;;;;;4987047;28;20206;-76
2023/03/27 04:35:44;;;;;;;3.93;2.17;;;8.20;73.70;;;;;;4982636;28;20859;-78
2023/03/27 04:38:11;;;;;;;2.57;2.40;;;8.20;74.10;;;;;;4977351;28;20198;-78
2023/03/27 04:40:37;;;;;;;2.77;2.57;;;8.20;73.80;;;;;;4980039;28;20834;-78
2023/03/27 04:43:03;;;;;;;6.00;2.10;;;8.20;73.80;;;;;;4981124;28;20170;-76
2023/03/27 04:45:31;;;;;;;2.40;2.20;;;8.20;73.50;;;;;;4986054;28;20293;-77
2023/03/27 04:47:57;;;;;;;3.13;2.07;;;8.20;73.70;;;;;;4986376;28;20239;-74
2023/03/27 04:50:23;;;;;;;2.17;2.07;;;8.20;73.40;;;;;;4980956;28;20206;-74
2023/03/27 04:52:50;;;;;;;5.03;2.23;;;8.20;73.90;;;;;;4979128;28;20231;-73
2023/03/27 04:55:17;;;;;;;2.00;1.90;;;8.20;74.30;;;;;;4981151;28;20229;-75
2023/03/27 04:57:46;;;;;;;11.00;2.20;;;8.20;74.10;;;;;;4977351;28;20715;-75
2023/03/27 05:00:17;;;;;;;1.97;1.77;;;8.20;73.90;;;;;;4978864;28;20189;-74
2023/03/27 05:02:44;;;;;;;5.10;2.40;;;8.30;74.10;;;;;;4978447;28;20206;-75
2023/03/27 05:05:10;;;;;;;3.97;2.20;;;8.30;74.50;;;;;;4980253;28;20277;-78
2023/03/27 05:07:36;;;;;;;3.13;2.10;;;8.40;73.70;;;;;;4975632;28;20632;-78
2023/03/27 05:10:03;;;;;;;4.17;2.50;;;8.40;73.90;;;;;;4979169;28;20293;-79
2023/03/27 05:12:29;;;;;;;3.00;2.20;;;8.50;74.30;;;;;;4979006;28;20292;-78
2023/03/27 05:14:55;;;;;;;2.70;2.60;;;8.60;74.10;;;;;;4978200;28;20225;-78
2023/03/27 05:17:24;;;;;;;3.37;2.53;;;8.60;73.80;;;;;;4982304;28;20256;-77
2023/03/27 05:19:50;;;;;;;3.60;2.13;;;8.70;72.90;;;;;;4982208;28;20182;-77
2023/03/27 05:22:16;;;;;;;3.60;2.47;;;8.80;72.50;;;;;;4981797;28;20188;-78
2023/03/27 05:24:41;;;;;;;6.83;2.80;;;8.90;72.40;;;;;;4981226;28;20182;-79
2023/03/27 05:27:07;;;;;;;4.20;3.27;;;9.00;72.00;;;;;;4981268;28;20186;-78
2023/03/27 05:29:34;;;;;;;3.03;2.83;;;9.10;72.00;;;;;;4985048;28;20265;-79
2023/03/27 05:32:00;;;;;;;5.27;2.77;;;9.20;72.10;;;;;;4980468;28;20278;-78
2023/03/27 05:34:27;;;;;;;8.70;3.20;;;9.30;71.60;;;;;;4977121;28;20273;-78
2023/03/27 05:36:54;;;;;;;3.20;2.50;;;9.40;72.20;;;;;;4981854;28;20653;-79
2023/03/27 05:39:20;;;;;;;6.87;3.27;;;9.50;71.40;;;;;;4982265;28;20763;-78
2023/03/27 05:41:46;;;;;;;3.23;2.90;;;9.50;71.60;;;;;;4978687;28;20223;-77
2023/03/27 05:44:12;;;;;;;3.90;2.50;;;9.60;71.50;;;;;;4981696;28;20225;-79
2023/03/27 05:46:39;;;;;;;2.90;2.70;;;9.70;71.00;;;;;;4984055;28;20264;-77
2023/03/27 05:49:04;;;;;;;3.93;2.60;;;9.80;70.80;;;;;;4980144;28;20190;-77
2023/03/27 05:51:31;;;;;;;3.83;2.97;;;9.90;69.60;;;;;;4980331;28;20189;-79
2023/03/27 05:53:57;;;;;;;5.93;2.57;;;10.00;69.90;;;;;;4981131;28;20189;-79
2023/03/27 05:56:22;;;;;;;2.10;2.00;;;10.20;70.10;;;;;;4981196;28;20213;-79
2023/03/27 05:58:48;;;;;;;2.63;2.43;;;10.30;69.40;;;;;;4980509;28;20197;-78
2023/03/27 06:01:14;;;;;;;2.30;2.10;;;10.40;68.70;;;;;;4983594;28;20178;-79
2023/03/27 06:03:39;;;;;;;1.40;1.40;;;10.60;68.70;;;;;;4980104;28;20647;-79
2023/03/27 06:06:07;;;;;;;2.05;1.83;;;10.70;68.10;;;;;;4980037;28;20706;-79
2023/03/27 06:08:33;;;;;;;1.35;1.30;;;10.90;67.30;;;;;;4977732;28;20292;-79
2023/03/27 06:10:59;;;;;;;1.60;1.52;;;11.00;66.00;;;;;;4977288;28;20289;-79
2023/03/27 06:13:25;;;;;;;2.08;1.52;;;11.10;66.10;;;;;;4975360;28;20333;-77
2023/03/27 06:15:53;;;;;;;2.28;2.08;;;11.20;66.40;;;;;;4981774;28;20244;-79
2023/03/27 06:18:19;;;;;;;1.67;1.40;;;11.40;66.00;;;;;;4978673;28;20212;-79
2023/03/27 06:20:44;;;;;;;2.75;1.13;;;11.50;65.90;;;;;;4975173;28;20202;-79
2023/03/27 06:23:11;;;;;;;1.30;1.20;;;11.70;65.50;;;;;;4980792;28;20194;-79
2023/03/27 06:25:38;;;;;;;1.33;1.33;;;11.80;64.80;;;;;;4979849;28;20295;-79
2023/03/27 06:28:06;;;;;;;1.40;1.30;;;12.00;64.10;;;;;;4976115;28;20206;-79
2023/03/27 06:30:33;;;;;;;1.10;1.10;;;12.20;64.30;;;;;;4978695;28;20288;-79
2023/03/27 06:33:00;;;;;;;1.05;0.85;;;12.30;64.00;;;;;;4979600;28;20197;-79
2023/03/27 06:35:28;;;;;;;2.28;1.98;;;12.50;63.30;;;;;;4973664;28;20321;-79
2023/03/27 06:38:03;;;;;;;3.65;2.90;;;12.60;62.70;;;;;;4974513;28;20185;-79
2023/03/27 06:40:30;;;;;;;1.75;1.65;;;12.70;62.50;;;;;;4976359;28;20186;-79
2023/03/27 06:42:57;;;;;;;4.22;1.40;;;12.80;62.30;;;;;;4975887;28;20191;-79
2023/03/27 06:45:26;;;;;;;1.45;1.35;;;12.90;61.60;;;;;;4981079;28;20208;-78
2023/03/27 06:47:55;;;;;;;1.60;1.50;;;12.90;61.40;;;;;;4977419;28;20171;-78
2023/03/27 06:50:21;;;;;;;1.50;1.30;;;12.90;61.60;;;;;;4979572;28;20193;-78
2023/03/27 06:52:47;;;;;;;1.45;1.30;;;13.00;61.60;;;;;;4980761;28;20269;-78
2023/03/27 06:55:18;;;;;;;0.95;0.95;;;13.10;61.90;;;;;;4979482;28;20735;-78
2023/03/27 06:57:46;;;;;;;1.50;1.10;;;13.10;61.80;;;;;;4979793;28;20217;-78
2023/03/27 07:00:17;;;;;;;1.90;0.68;;;13.20;61.90;;;;;;4977252;28;20725;-78
2023/03/27 07:02:46;;;;;;;0.55;0.55;;;13.20;62.20;;;;;;4979304;28;20223;-78
2023/03/27 07:05:14;;;;;;;0.65;0.65;;;13.30;61.90;;;;;;4978046;28;20264;-78
2023/03/27 07:07:40;;;;;;;0.50;0.50;;;13.30;61.60;;;;;;4978403;28;20186;-78
2023/03/27 07:10:07;;;;;;;0.38;0.38;;;13.40;62.00;;;;;;4979323;28;20205;-77
2023/03/27 07:12:33;;;;;;;1.55;0.50;;;13.40;61.50;;;;;;4976072;28;20190;-78
2023/03/27 07:14:59;;;;;;;0.80;0.80;;;13.40;61.10;;;;;;4979282;28;20218;-78
2023/03/27 07:17:25;;;;;;;1.17;0.57;;;13.40;61.40;;;;;;4982524;28;20201;-79
2023/03/27 07:19:51;;;;;;;1.00;0.65;;;13.50;61.70;;;;;;4977729;28;21579;-78
2023/03/27 07:22:16;;;;;;;0.50;0.50;;;13.70;61.60;;;;;;4976479;28;20221;-79
2023/03/27 07:24:42;;;;;;;0.52;0.52;;;13.80;61.00;;;;;;4979015;28;20190;-78
2023/03/27 07:27:08;;;;;;;0.93;0.60;;;14.00;61.20;;;;;;4980628;28;20246;-79
2023/03/27 07:29:35;;;;;;;1.00;0.65;;;14.30;60.90;;;;;;4991801;28;20191;-80
2023/03/27 07:32:02;;;;;;;1.65;0.80;;;14.50;60.50;;;;;;4971187;28;20232;-78
2023/03/27 07:34:28;;;;;;;0.77;0.77;;;14.70;60.30;;;;;;4991624;28;20182;-79
2023/03/27 07:36:56;;;;;;;0.70;0.40;;;14.90;59.70;;;;;;4976995;28;20185;-77
2023/03/27 07:39:22;;;;;;;0.80;0.80;;;15.10;59.10;;;;;;4978914;28;20935;-78
2023/03/27 07:41:48;;;;;;;0.50;0.50;;;15.30;58.80;;;;;;4979446;28;20193;-77
2023/03/27 07:44:13;;;;;;;0.80;0.80;;;15.50;58.60;;;;;;4975576;28;20202;-78
2023/03/27 07:46:40;;;;;;;3.33;1.42;;;15.70;58.10;;;;;;4977952;28;20831;-79
2023/03/27 07:49:07;;;;;;;1.35;1.27;;;15.90;58.10;;;;;;4979944;28;20183;-77
2023/03/27 07:51:33;;;;;;;1.00;1.00;;;16.00;57.80;;;;;;4979571;28;20220;-78
2023/03/27 07:54:02;;;;;;;0.65;0.65;;;16.10;57.80;;;;;;4981083;28;20174;-78
2023/03/27 07:56:29;;;;;;;0.90;0.90;;;16.20;57.60;;;;;;4979909;28;20645;-80
2023/03/27 07:58:54;;;;;;;1.50;1.05;;;16.20;57.80;;;;;;4975615;28;20190;-77
2023/03/27 08:01:20;;;;;;;0.80;0.80;;;16.30;58.10;;;;;;4987287;28;20578;-78
2023/03/27 08:03:47;;;;;;;1.05;1.05;;;16.30;58.30;;;;;;4982516;28;20264;-78
2023/03/27 08:06:13;;;;;;;1.65;1.00;;;16.30;58.40;;;;;;4988476;28;20178;-80
2023/03/27 08:08:38;;;;;;;0.95;0.95;;;16.30;57.00;;;;;;4983079;28;20178;-79
2023/03/27 08:11:05;;;;;;;0.80;0.80;;;16.30;58.20;;;;;;4983156;28;20917;-79
2023/03/27 08:13:31;;;;;;;2.90;0.75;;;16.30;58.50;;;;;;4982030;28;20179;-79
2023/03/27 08:16:12;;;;;;;1.02;1.02;;;16.40;58.40;;;;;;4984114;28;20210;-79
2023/03/27 08:18:38;;;;;;;1.00;1.00;;;16.50;58.20;;;;;;4981973;28;20186;-80
2023/03/27 08:21:07;;;;;;;2.22;0.90;;;16.50;58.40;;;;;;4978394;28;20182;-79
2023/03/27 08:23:33;;;;;;;0.68;0.68;;;16.70;57.90;;;;;;4984213;28;20265;-79
2023/03/27 08:25:59;;;;;;;0.77;0.77;;;16.80;58.00;;;;;;4983613;28;20659;-79
2023/03/27 08:28:33;;;;;;;1.15;1.15;;;16.90;58.10;;;;;;4984362;28;21479;-79
2023/03/27 08:31:02;;;;;;;1.02;0.98;;;17.10;58.10;;;;;;4983550;28;20176;-79
2023/03/27 08:33:28;;;;;;;0.80;0.80;;;17.20;58.00;;;;;;4981467;28;20178;-79
2023/03/27 08:35:57;;;;;;;1.00;1.00;;;17.20;57.90;;;;;;4983532;28;20201;-78
2023/03/27 08:38:23;;;;;;;1.15;1.15;;;17.30;57.90;;;;;;4978840;28;20182;-79
2023/03/27 08:40:53;;;;;;;1.02;1.02;;;17.30;57.50;;;;;;4981904;28;20190;-78
2023/03/27 08:43:34;;;;;;;0.95;0.95;;;17.30;57.50;;;;;;4985218;28;20194;-78
2023/03/27 08:46:20;;;;;;;0.90;0.90;;;17.30;57.60;;;;;;4981180;28;20618;-78
2023/03/27 08:49:13;;;;;;;0.80;0.80;;;17.30;58.20;;;;;;4980860;28;20189;-78
2023/03/27 08:51:48;;;;;;;0.73;0.73;;;17.20;59.00;;;;;;4978859;28;20185;-78
2023/03/27 08:54:36;;;;;;;1.10;1.10;;;16.90;59.50;;;;;;4978750;28;20246;-77
2023/03/27 08:57:13;;;;;;;1.35;0.80;;;16.60;60.10;;;;;;4982011;28;20197;-78
2023/03/27 08:59:39;;;;;;;0.88;0.88;;;16.40;60.80;;;;;;4979373;28;20260;-78
2023/03/27 09:02:32;;;;;;;0.70;0.70;;;16.30;60.70;;;;;;4983792;28;20281;-79
2023/03/27 09:05:16;;;;;;;0.70;0.70;;;16.30;60.80;;;;;;4980397;28;20178;-78
2023/03/27 09:08:03;;;;;;;0.93;0.93;;;16.60;60.30;;;;;;4978751;28;20201;-78
2023/03/27 09:11:26;;;;;;;0.70;0.70;;;16.90;59.30;;;;;;4979155;28;20656;-78
2023/03/27 09:13:52;;;;;;;0.82;0.82;;;17.30;57.30;;;;;;4943410;28;20206;-78
2023/03/27 09:16:28;;;;;;;3.72;0.80;;;17.70;56.30;;;;;;4952917;28;20230;-78
2023/03/27 09:19:10;;;;;;;0.98;0.98;;;18.00;56.80;;;;;;4950242;28;20190;-78
2023/03/27 09:21:55;;;;;;;1.15;1.13;;;18.10;57.10;;;;;;4936213;28;20314;-80
2023/03/27 09:24:35;;;;;;;3.95;0.68;;;18.40;56.30;;;;;;4951893;28;20911;-78
2023/03/27 09:27:24;;;;;;;1.65;0.80;;;18.70;55.20;;;;;;4941517;28;20579;-79
2023/03/27 09:30:17;;;;;;;0.65;0.65;;;18.70;53.80;;;;;;4956902;28;20186;-79
2023/03/27 09:32:45;;;;;;;0.60;0.60;;;18.10;54.70;;;;;;4953349;28;20779;-78
2023/03/27 09:35:16;;;;;;;1.85;0.70;;;17.70;56.40;;;;;;4957913;28;20218;-78
2023/03/27 09:37:42;;;;;;;0.50;0.50;;;17.30;56.60;;;;;;4955066;28;20237;-77
2023/03/27 09:40:22;;;;;;;0.60;0.60;;;17.00;57.40;;;;;;4958224;28;20195;-79
2023/03/27 09:42:50;;;;;;;0.82;0.82;;;16.70;58.10;;;;;;4957092;28;20191;-78
2023/03/27 09:45:16;;;;;;;0.63;0.63;;;16.40;59.00;;;;;;4934487;29;20222;-78
2023/03/27 09:47:54;;;;;;;2.25;0.50;;;16.20;59.20;;;;;;4955206;28;20179;-78
2023/03/27 09:50:46;;;;;;;1.85;0.77;;;16.10;58.40;;;;;;4986756;28;20285;-77
2023/03/27 09:53:13;;;;;;;0.60;0.60;;;16.10;59.70;;;;;;4982022;28;20189;-79
2023/03/27 09:55:58;;;;;;;0.50;0.50;;;16.10;60.20;;;;;;4984063;28;20217;-79
2023/03/27 09:58:39;;;;;;;0.82;0.57;;;16.10;60.30;;;;;;4988285;28;20181;-79
2023/03/27 10:01:12;;;;;;;0.80;0.80;;;16.10;60.40;;;;;;4981805;28;20178;-78
2023/03/27 10:03:53;;;;;;;0.80;0.80;;;16.10;60.60;;;;;;4978739;28;20190;-79
2023/03/27 10:06:36;;;;;;;1.00;1.00;;;16.10;60.60;;;;;;4979208;28;20570;-80
2023/03/27 10:09:33;;;;;;;0.77;0.77;;;16.10;60.90;;;;;;4977158;28;20190;-80
2023/03/27 10:12:19;;;;;;;0.80;0.80;;;16.10;60.30;;;;;;4982899;28;20174;-80
2023/03/27 10:14:48;;;;;;;1.05;0.90;;;16.00;61.60;;;;;;4981443;28;20304;-79
2023/03/27 10:17:25;;;;;;;0.60;0.60;;;15.90;61.80;;;;;;4979957;28;20178;-80
2023/03/27 10:19:58;;;;;;;1.58;0.60;;;15.90;61.90;;;;;;4980832;28;20209;-79
2023/03/27 10:22:30;;;;;;;0.50;0.50;;;15.70;62.70;;;;;;4978202;28;20182;-80
2023/03/27 10:25:17;;;;;;;0.68;0.50;;;15.60;61.60;;;;;;4978365;28;20182;-80
2023/03/27 10:27:43;;;;;;;0.50;0.50;;;15.50;62.30;;;;;;4981527;28;20196;-80
2023/03/27 10:30:36;;;;;;;0.50;0.50;;;15.20;63.70;;;;;;4978370;28;20190;-80
2023/03/27 10:33:03;;;;;;;0.40;0.40;;;14.90;63.60;;;;;;4979323;28;20185;-80
2023/03/27 10:35:34;;;;;;;0.65;0.52;;;14.70;63.70;;;;;;4976517;28;20214;-80
2023/03/27 10:38:02;;;;;;;0.40;0.40;;;14.60;64.40;;;;;;4979178;28;20196;-79
2023/03/27 10:40:35;;;;;;;0.30;0.30;;;14.60;63.50;;;;;;4982316;28;20186;-80
2023/03/27 10:43:05;;;;;;;0.47;0.47;;;14.70;64.00;;;;;;4978708;28;20208;-80
2023/03/27 10:45:37;;;;;;;0.70;0.70;;;14.90;63.10;;;;;;4983941;28;20273;-81
2023/03/27 10:48:06;;;;;;;0.57;0.43;;;15.10;63.60;;;;;;4982972;28;20197;-80
2023/03/27 10:50:39;;;;;;;0.30;0.30;;;15.40;62.80;;;;;;4982582;28;20584;-80
2023/03/27 10:53:15;;;;;;;0.40;0.40;;;15.70;63.40;;;;;;4973390;28;20186;-80
2023/03/27 10:56:14;;;;;;;0.82;0.82;;;16.00;63.10;;;;;;4982715;28;20228;-80
2023/03/27 10:58:50;;;;;;;1.08;0.80;;;16.40;62.20;;;;;;4942293;28;20814;-80
2023/03/27 11:01:25;;;;;;;2.75;0.80;;;16.70;61.50;;;;;;4949851;28;20193;-80
2023/03/27 11:04:13;;;;;;;1.95;0.77;;;17.00;61.50;;;;;;4949137;28;20193;-80
2023/03/27 11:06:42;;;;;;;0.55;0.55;;;17.30;61.40;;;;;;4949175;28;20306;-80
2023/03/27 11:09:17;;;;;;;1.33;0.98;;;17.50;60.70;;;;;;4942951;28;20818;-80
2023/03/27 11:12:09;;;;;;;1.05;0.80;;;17.70;60.60;;;;;;4953055;28;20186;-80
2023/03/27 11:14:48;;;;;;;0.82;0.82;;;17.80;61.30;;;;;;4896238;29;20287;-80
2023/03/27 11:17:19;;;;;;;0.43;0.43;;;17.90;61.40;;;;;;4912570;29;20251;-80
2023/03/27 11:19:52;;;;;;;0.50;0.50;;;17.90;61.90;;;;;;4913140;29;20757;-80
2023/03/27 11:22:58;;;;;;;0.60;0.60;;;17.70;62.50;;;;;;4913613;29;20203;-80
2023/03/27 11:25:38;;;;;;;0.57;0.57;;;17.50;63.20;;;;;;4895054;29;20287;-80
2023/03/27 11:28:21;;;;;;;0.50;0.50;;;17.30;63.50;;;;;;4914502;29;20188;-80
2023/03/27 11:30:54;;;;;;;0.40;0.40;;;16.90;64.70;;;;;;4915965;29;20271;-80
2023/03/27 11:33:37;;;;;;;0.68;0.68;;;16.60;65.40;;;;;;4914043;29;20832;-80
2023/03/27 11:36:11;;;;;;;0.60;0.60;;;16.20;66.40;;;;;;4921310;29;20235;-79
2023/03/27 11:38:44;;;;;;;3.33;0.40;;;15.90;66.70;;;;;;4923188;29;20219;-79
2023/03/27 11:41:12;;;;;;;0.47;0.47;;;15.70;67.40;;;;;;4918108;29;20184;-79
2023/03/27 11:43:39;;;;;;;0.80;0.77;;;15.60;66.90;;;;;;4904971;29;20690;-79
2023/03/27 11:46:33;;;;;;;1.45;0.40;;;15.50;67.40;;;;;;4916603;29;20208;-79
2023/03/27 11:49:23;;;;;;;0.50;0.50;;;15.30;68.80;;;;;;4918089;29;20323;-79
2023/03/27 11:52:16;;;;;;;1.10;0.68;;;15.00;69.20;;;;;;4955277;28;20193;-79
2023/03/27 11:54:57;;;;;;;1.05;0.60;;;14.50;71.30;;;;;;4984054;28;20185;-80
2023/03/27 11:57:25;;;;;;;0.63;0.63;;;14.10;71.70;;;;;;4982483;28;20181;-79
2023/03/27 11:59:59;;;;;;;0.50;0.50;;;13.60;75.50;;;;;;4980485;28;20542;-79
2023/03/27 12:02:47;;;;;;;0.30;0.30;;;13.30;77.40;;;;;;4975302;28;20178;-79
2023/03/27 12:05:32;;;;;;;0.30;0.30;;;12.90;79.20;;;;;;4981182;28;20186;-78
2023/03/27 12:08:16;;;;;;;0.20;0.20;;;12.40;80.80;;;;;;4977746;28;20190;-77
2023/03/27 12:10:44;;;;;;;0.20;0.15;;;11.70;80.60;;;;;;4977385;28;20690;-77
2023/03/27 12:13:29;;;;;;;0.10;0.10;;;11.00;82.90;;;;;;4978668;28;20236;-78
2023/03/27 12:16:01;;;;;;;0.85;0.10;;;10.40;85.20;;;;;;4976149;28;20216;-80
2023/03/27 12:19:00;;;;;;;0.10;0.10;;;9.90;86.90;;;;;;4979717;28;20179;-82
2023/03/27 12:21:52;;;;;;;0.22;0.20;;;9.60;88.40;;;;;;4977599;28;20186;-80
2023/03/27 12:24:18;;;;;;;0.00;0.00;;;9.20;89.70;;;;;;4988660;28;20185;-81
2023/03/27 12:27:22;;;;;;;0.00;0.00;;;9.00;90.90;;;;;;4978377;28;20186;-79
2023/03/27 12:30:11;;;;;;;0.00;0.00;;;8.80;91.70;;;;;;4977778;28;20182;-81
2023/03/27 12:33:03;;;;;;;4.63;0.10;;;8.60;91.40;;;;;;4978386;28;20767;-78
2023/03/27 12:35:34;;;;;;;0.00;0.00;;;8.40;92.80;;;;;;4969433;28;20276;-79
2023/03/27 12:38:04;;;;;;;1.40;0.10;;;8.30;92.30;;;;;;4970142;28;20210;-79
2023/03/27 12:40:46;;;;;;;0.07;0.07;;;8.20;92.50;;;;;;4972508;28;20213;-79
2023/03/27 12:43:42;;;;;;;0.00;0.00;;;8.00;92.40;;;;;;4970642;28;20205;-79
2023/03/27 12:46:23;;;;;;;0.00;0.00;;;7.90;91.70;;;;;;4967727;28;20226;-79
2023/03/27 12:49:09;;;;;;;0.00;0.00;;;7.80;92.90;;;;;;4982546;28;20213;-79
2023/03/27 12:51:53;;;;;;;0.00;0.00;;;7.80;92.20;;;;;;4981342;28;20188;-78
2023/03/27 12:54:24;;;;;;;0.10;0.10;;;7.80;92.30;;;;;;4982535;28;20194;-78
2023/03/27 12:57:20;;;;;;;0.27;0.10;;;7.80;92.60;;;;;;4980066;28;20218;-78
2023/03/27 12:59:57;;;;;;;0.00;0.00;;;7.90;91.90;;;;;;4982588;28;20180;-78
2023/03/27 13:02:48;;;;;;;0.10;0.10;;;8.00;92.70;;;;;;4984835;28;20188;-78
2023/03/27 13:05:38;;;;;;;0.10;0.10;;;8.10;91.00;;;;;;4986840;28;20588;-78
2023/03/27 13:08:41;;;;;;;0.00;0.00;;;8.30;92.50;;;;;;4981978;28;20189;-78
2023/03/27 13:11:36;;;;;;;0.00;0.00;;;8.40;92.90;;;;;;4980846;28;20600;-78
2023/03/27 13:14:20;;;;;;;0.00;0.00;;;8.50;93.30;;;;;;4948389;29;20299;-78
2023/03/27 13:17:22;;;;;;;0.37;0.20;;;8.70;93.70;;;;;;4945968;29;20219;-78
2023/03/27 13:20:08;;;;;;;0.20;0.20;;;8.90;93.90;;;;;;4947753;29;20205;-77
2023/03/27 13:22:49;;;;;;;0.13;0.13;;;9.10;93.90;;;;;;4947742;29;20693;-78
2023/03/27 13:25:26;;;;;;;0.20;0.20;;;9.30;94.20;;;;;;4946697;29;20757;-78